Time;durP1;ratioP1;P1;durP2;ratioP2;P2;SDS_P1;SDS_P2;PMS_P1;PMS_P2;Temp;Humidity;BMP_temperature;BMP_pressure;BME280_temperature;BME280_humidity;BME280_pressure;Samples;Min_cycle;Max_cycle;Signal;HPM_P1;HPM_P2
2024/02/17 00:00:23;;;;;;;;;;;9.90;99.90;;;;;;5033723;28;20045;-77
2024/02/17 00:02:50;;;;;;;11.35;6.72;;;9.80;99.90;;;;;;5013671;28;19956;-77
2024/02/17 00:05:18;;;;;;;14.65;8.07;;;9.80;99.90;;;;;;4978472;28;20049;-78
2024/02/17 00:07:45;;;;;;;11.25;7.78;;;9.80;99.90;;;;;;5024411;28;20068;-77
2024/02/17 00:10:12;;;;;;;12.68;7.50;;;9.70;99.90;;;;;;5024523;28;20053;-77
2024/02/17 00:12:40;;;;;;;10.07;6.18;;;9.80;99.90;;;;;;5014441;28;20042;-77
2024/02/17 00:15:08;;;;;;;13.05;8.70;;;9.70;99.90;;;;;;5007899;28;20117;-77
2024/02/17 00:17:36;;;;;;;10.85;6.15;;;9.60;99.90;;;;;;5033207;28;20041;-76
2024/02/17 00:20:04;;;;;;;12.18;8.35;;;9.60;99.90;;;;;;5025520;28;20121;-76
2024/02/17 00:22:32;;;;;;;15.18;7.95;;;9.60;99.90;;;;;;5024900;28;20049;-76
2024/02/17 00:24:59;;;;;;;14.40;7.53;;;9.60;99.90;;;;;;5026921;28;20044;-76
2024/02/17 00:27:26;;;;;;;12.52;7.75;;;9.70;99.90;;;;;;5006715;28;20111;-76
2024/02/17 00:29:53;;;;;;;12.10;6.80;;;9.70;99.90;;;;;;5009447;28;20058;-76
2024/02/17 00:32:20;;;;;;;13.07;7.57;;;9.80;99.90;;;;;;5001475;28;20049;-76
2024/02/17 00:34:47;;;;;;;11.23;6.30;;;9.80;99.90;;;;;;4990860;28;20045;-76
2024/02/17 00:37:15;;;;;;;13.52;7.15;;;9.90;99.90;;;;;;4993846;28;20037;-77
2024/02/17 00:39:42;;;;;;;14.80;8.75;;;9.90;99.90;;;;;;5025498;28;20045;-76
2024/02/17 00:42:09;;;;;;;11.95;7.82;;;9.90;99.90;;;;;;5016325;28;20042;-76
2024/02/17 00:44:37;;;;;;;15.68;8.65;;;9.90;99.90;;;;;;5012727;28;20049;-76
2024/02/17 00:47:04;;;;;;;13.20;7.28;;;9.90;99.90;;;;;;5033227;28;20053;-76
2024/02/17 00:49:31;;;;;;;11.82;6.40;;;9.90;99.90;;;;;;4987163;28;20501;-76
2024/02/17 00:51:58;;;;;;;12.82;7.57;;;9.90;99.90;;;;;;5021135;28;20179;-76
2024/02/17 00:54:25;;;;;;;13.95;7.35;;;9.90;99.90;;;;;;5024494;28;20042;-77
2024/02/17 00:56:52;;;;;;;11.32;6.70;;;10.00;99.90;;;;;;4985746;28;20418;-76
2024/02/17 00:59:19;;;;;;;11.63;7.22;;;10.00;99.90;;;;;;5016194;28;20046;-77
2024/02/17 01:01:46;;;;;;;13.60;7.45;;;10.00;99.90;;;;;;5032276;28;20083;-77
2024/02/17 01:04:17;;;;;;;17.58;9.68;;;10.00;99.90;;;;;;4971179;28;20112;-77
2024/02/17 01:06:44;;;;;;;13.77;8.23;;;10.00;99.90;;;;;;5032077;28;20103;-76
2024/02/17 01:09:11;;;;;;;16.17;8.82;;;10.00;99.90;;;;;;5015878;28;20048;-77
2024/02/17 01:11:38;;;;;;;12.88;7.22;;;10.00;99.90;;;;;;5023520;28;20041;-77
2024/02/17 01:14:06;;;;;;;15.30;8.48;;;10.00;99.90;;;;;;5037149;28;20081;-77
2024/02/17 01:16:34;;;;;;;14.40;8.90;;;10.00;99.90;;;;;;5006320;28;20494;-77
2024/02/17 01:19:01;;;;;;;18.05;10.27;;;10.00;99.90;;;;;;5007281;28;20046;-77
2024/02/17 01:21:30;;;;;;;19.52;11.00;;;10.00;99.90;;;;;;5015720;28;20486;-77
2024/02/17 01:23:58;;;;;;;16.77;9.40;;;10.00;99.90;;;;;;5017349;28;20057;-77
2024/02/17 01:26:27;;;;;;;19.52;9.10;;;10.00;99.90;;;;;;4996266;28;20081;-76
2024/02/17 01:28:54;;;;;;;15.45;8.93;;;10.00;99.90;;;;;;5043875;28;20053;-76
2024/02/17 01:31:21;;;;;;;17.50;9.75;;;10.00;99.90;;;;;;5012957;28;20053;-85
2024/02/17 01:33:50;;;;;;;15.35;8.55;;;10.00;99.90;;;;;;5022528;28;20038;-84
2024/02/17 01:36:19;;;;;;;19.67;11.23;;;10.10;99.90;;;;;;4992594;28;20049;-85
2024/02/17 01:38:46;;;;;;;22.45;10.55;;;10.00;99.90;;;;;;5033261;28;20073;-84
2024/02/17 01:41:14;;;;;;;23.00;10.68;;;10.00;99.90;;;;;;5023610;28;20127;-84
2024/02/17 01:43:41;;;;;;;17.17;9.65;;;10.00;99.90;;;;;;5032481;28;20378;-84
2024/02/17 01:46:08;;;;;;;17.98;9.60;;;10.00;99.90;;;;;;5043574;28;20420;-84
2024/02/17 01:48:35;;;;;;;19.08;10.43;;;10.00;99.90;;;;;;5016541;28;20050;-84
2024/02/17 01:51:06;;;;;;;21.30;11.20;;;10.00;99.90;;;;;;4996392;28;20104;-84
2024/02/17 01:53:33;;;;;;;21.10;12.63;;;10.00;99.90;;;;;;5009349;28;20462;-84
2024/02/17 01:56:01;;;;;;;22.00;11.98;;;10.00;99.90;;;;;;5016006;28;20489;-83
2024/02/17 01:58:28;;;;;;;19.23;10.52;;;10.00;99.90;;;;;;5022401;28;20495;-84
2024/02/17 02:00:57;;;;;;;24.10;13.38;;;10.00;99.90;;;;;;5010027;28;20046;-84
2024/02/17 02:03:24;;;;;;;22.60;12.63;;;10.00;99.90;;;;;;5025194;28;20041;-84
2024/02/17 02:05:51;;;;;;;20.80;11.10;;;10.00;99.90;;;;;;5003850;28;20049;-84
2024/02/17 02:08:18;;;;;;;17.67;10.18;;;10.00;99.90;;;;;;5036454;28;20516;-84
2024/02/17 02:10:45;;;;;;;22.90;11.38;;;10.00;99.90;;;;;;5036736;28;20444;-84
2024/02/17 02:13:12;;;;;;;22.23;12.05;;;10.00;99.90;;;;;;5000070;28;20137;-84
2024/02/17 02:15:43;;;;;;;22.15;11.52;;;10.00;99.90;;;;;;5014371;28;20045;-83
2024/02/17 02:18:20;;;;;;;20.40;11.68;;;10.00;99.90;;;;;;5015938;28;20088;-84
2024/02/17 02:20:49;;;;;;;17.40;10.48;;;10.00;99.90;;;;;;4997918;28;20057;-84
2024/02/17 02:23:16;;;;;;;16.35;9.13;;;10.00;99.90;;;;;;5007914;28;20049;-84
2024/02/17 02:25:53;;;;;;;16.55;9.75;;;10.00;99.90;;;;;;5037221;28;20489;-84
2024/02/17 02:28:22;;;;;;;14.63;8.75;;;10.00;99.90;;;;;;5065585;28;20052;-84
2024/02/17 02:30:50;;;;;;;22.00;11.45;;;10.00;99.90;;;;;;5065612;28;20047;-84
2024/02/17 02:33:18;;;;;;;19.52;11.15;;;10.00;99.90;;;;;;5032623;28;20037;-84
2024/02/17 02:35:45;;;;;;;22.02;11.90;;;10.00;99.90;;;;;;5033954;28;20045;-85
2024/02/17 02:38:12;;;;;;;19.35;11.30;;;9.90;99.90;;;;;;4991178;28;20041;-83
2024/02/17 02:40:39;;;;;;;19.85;11.02;;;9.90;99.90;;;;;;5025653;28;20048;-83
2024/02/17 02:43:07;;;;;;;16.52;10.15;;;9.90;99.90;;;;;;5026694;28;20052;-84
2024/02/17 02:45:34;;;;;;;19.67;9.35;;;9.90;99.90;;;;;;5036503;28;20091;-84
2024/02/17 02:48:01;;;;;;;17.65;9.55;;;9.90;99.90;;;;;;5015579;28;20511;-84
2024/02/17 02:50:28;;;;;;;16.35;8.50;;;9.90;99.90;;;;;;5005560;28;20095;-84
2024/02/17 02:52:55;;;;;;;21.50;10.50;;;10.00;99.90;;;;;;5015254;28;20052;-84
2024/02/17 02:55:22;;;;;;;20.95;10.93;;;9.90;99.90;;;;;;5018551;28;20057;-84
2024/02/17 02:57:49;;;;;;;20.15;10.90;;;9.90;99.90;;;;;;5040735;28;20535;-84
2024/02/17 03:00:17;;;;;;;19.92;10.73;;;9.90;99.90;;;;;;5014363;28;20072;-83
2024/02/17 03:02:44;;;;;;;17.20;9.57;;;9.90;99.90;;;;;;5027837;28;20038;-84
2024/02/17 03:05:11;;;;;;;21.10;11.20;;;9.90;99.90;;;;;;5012519;28;20402;-84
2024/02/17 03:07:38;;;;;;;20.08;11.18;;;9.90;99.90;;;;;;5031427;28;20034;-84
2024/02/17 03:10:05;;;;;;;20.85;10.88;;;9.90;99.90;;;;;;5022728;28;20057;-84
2024/02/17 03:12:33;;;;;;;20.95;11.77;;;9.90;99.90;;;;;;5028696;28;20124;-84
2024/02/17 03:15:02;;;;;;;19.52;9.60;;;9.90;99.90;;;;;;5027103;28;20101;-84
2024/02/17 03:17:29;;;;;;;17.08;9.60;;;9.90;99.90;;;;;;5001126;28;20038;-84
2024/02/17 03:20:00;;;;;;;20.20;12.02;;;9.90;99.90;;;;;;5038480;28;20547;-84
2024/02/17 03:22:27;;;;;;;20.05;11.30;;;9.90;99.90;;;;;;5047028;28;20044;-84
2024/02/17 03:24:54;;;;;;;19.73;10.38;;;9.90;99.90;;;;;;5009422;28;20451;-84
2024/02/17 03:27:21;;;;;;;19.27;10.57;;;9.90;99.90;;;;;;4996313;28;20085;-84
2024/02/17 03:29:48;;;;;;;18.20;10.25;;;9.90;99.90;;;;;;5000686;28;20049;-84
2024/02/17 03:32:16;;;;;;;18.63;10.48;;;9.90;99.90;;;;;;5005916;28;20501;-84
2024/02/17 03:34:43;;;;;;;17.95;11.60;;;9.90;99.90;;;;;;5004383;28;20057;-84
2024/02/17 03:37:11;;;;;;;18.90;11.30;;;9.80;99.90;;;;;;5011831;28;20140;-84
2024/02/17 03:39:38;;;;;;;19.17;9.73;;;9.90;99.90;;;;;;5014351;28;20123;-83
2024/02/17 03:42:08;;;;;;;18.45;9.88;;;9.90;99.90;;;;;;5032427;28;20065;-83
2024/02/17 03:44:36;;;;;;;17.73;9.07;;;9.90;99.90;;;;;;5021099;28;20505;-83
2024/02/17 03:47:03;;;;;;;17.20;9.98;;;9.90;99.90;;;;;;5020180;28;20041;-84
2024/02/17 03:49:30;;;;;;;16.42;8.52;;;9.90;99.90;;;;;;5024506;28;20044;-84
2024/02/17 03:51:57;;;;;;;15.60;8.13;;;9.90;99.90;;;;;;5017887;28;20054;-84
2024/02/17 03:54:24;;;;;;;14.18;7.28;;;9.90;99.90;;;;;;5014367;28;20786;-84
2024/02/17 03:56:51;;;;;;;12.60;6.95;;;9.90;99.90;;;;;;4985472;28;20121;-84
2024/02/17 03:59:18;;;;;;;17.15;7.80;;;9.90;99.90;;;;;;5022477;28;20044;-83
2024/02/17 04:01:45;;;;;;;11.10;6.65;;;9.90;99.90;;;;;;5025766;28;20509;-82
2024/02/17 04:04:12;;;;;;;15.73;7.63;;;9.90;99.90;;;;;;5007827;28;20077;-83
2024/02/17 04:06:39;;;;;;;15.88;8.20;;;9.90;99.90;;;;;;5026383;28;20075;-84
2024/02/17 04:09:07;;;;;;;19.83;9.32;;;9.90;99.90;;;;;;4987850;28;20045;-83
2024/02/17 04:11:34;;;;;;;17.52;10.45;;;9.90;99.90;;;;;;5013927;28;20076;-84
2024/02/17 04:14:01;;;;;;;14.95;7.30;;;9.90;99.90;;;;;;5010114;28;20085;-84
2024/02/17 04:16:28;;;;;;;12.70;7.78;;;9.90;99.90;;;;;;5046642;28;20037;-83
2024/02/17 04:18:55;;;;;;;20.58;10.73;;;9.90;99.90;;;;;;5023844;28;20049;-83
2024/02/17 04:21:22;;;;;;;14.88;8.32;;;9.90;99.90;;;;;;5003106;28;20092;-83
2024/02/17 04:23:49;;;;;;;16.77;9.77;;;9.90;99.90;;;;;;5016919;28;20069;-82
2024/02/17 04:26:16;;;;;;;15.63;8.60;;;9.90;99.90;;;;;;5012580;28;20053;-82
2024/02/17 04:28:43;;;;;;;16.10;8.88;;;9.90;99.90;;;;;;5016528;28;20045;-82
2024/02/17 04:31:10;;;;;;;18.23;9.20;;;9.90;99.90;;;;;;5020885;28;20399;-83
2024/02/17 04:33:38;;;;;;;16.75;9.23;;;9.90;99.90;;;;;;5029010;28;20106;-82
2024/02/17 04:36:06;;;;;;;16.42;7.93;;;9.90;99.90;;;;;;5005766;28;20046;-82
2024/02/17 04:38:34;;;;;;;14.00;8.00;;;9.90;99.90;;;;;;5016318;28;20045;-83
2024/02/17 04:41:02;;;;;;;15.90;8.60;;;9.90;99.90;;;;;;5013071;28;20092;-83
2024/02/17 04:43:29;;;;;;;15.68;7.32;;;9.90;99.90;;;;;;5033296;28;20066;-84
2024/02/17 04:45:56;;;;;;;13.50;8.10;;;9.90;99.90;;;;;;5017054;28;20045;-84
2024/02/17 04:48:23;;;;;;;14.98;7.90;;;9.90;99.90;;;;;;5004664;28;20056;-83
2024/02/17 04:50:50;;;;;;;13.70;8.05;;;9.90;99.90;;;;;;4996245;28;20561;-83
2024/02/17 04:53:18;;;;;;;13.85;8.32;;;9.90;99.90;;;;;;4996786;28;20498;-82
2024/02/17 04:55:45;;;;;;;16.20;8.82;;;9.90;99.90;;;;;;4996463;28;20148;-83
2024/02/17 04:58:17;;;;;;;15.77;8.68;;;9.90;99.90;;;;;;5012830;28;20091;-83
2024/02/17 05:00:47;;;;;;;14.98;8.82;;;9.90;99.90;;;;;;5000966;28;20088;-82
2024/02/17 05:03:15;;;;;;;20.33;9.95;;;9.90;99.90;;;;;;5006555;28;20076;-83
2024/02/17 05:05:43;;;;;;;16.10;9.15;;;9.90;99.90;;;;;;5015922;28;20077;-83
2024/02/17 05:08:10;;;;;;;17.98;9.95;;;9.90;99.90;;;;;;5012601;28;20038;-82
2024/02/17 05:10:39;;;;;;;21.88;10.65;;;9.90;99.90;;;;;;5029244;28;20457;-83
2024/02/17 05:13:06;;;;;;;20.58;9.88;;;9.80;99.90;;;;;;5015860;28;20100;-83
2024/02/17 05:15:34;;;;;;;16.35;9.10;;;9.90;99.90;;;;;;5032702;28;20156;-82
2024/02/17 05:18:02;;;;;;;20.58;11.52;;;9.90;99.90;;;;;;5018726;28;20037;-81
2024/02/17 05:20:30;;;;;;;20.55;10.98;;;9.90;99.90;;;;;;5026030;28;20047;-83
2024/02/17 05:22:57;;;;;;;16.60;10.30;;;9.90;99.90;;;;;;5012563;28;20072;-83
2024/02/17 05:25:24;;;;;;;20.63;10.88;;;9.90;99.90;;;;;;5024481;28;20049;-83
2024/02/17 05:27:51;;;;;;;20.13;11.18;;;9.80;99.90;;;;;;4995436;28;20049;-83
2024/02/17 05:30:18;;;;;;;19.38;10.45;;;9.90;99.90;;;;;;4970097;28;20053;-83
2024/02/17 05:32:45;;;;;;;18.42;9.50;;;9.80;99.90;;;;;;5022034;28;20502;-82
2024/02/17 05:35:12;;;;;;;20.30;10.52;;;9.90;99.90;;;;;;5036243;28;20052;-83
2024/02/17 05:37:40;;;;;;;18.00;10.10;;;9.90;99.90;;;;;;5026986;28;20135;-82
2024/02/17 05:40:08;;;;;;;16.55;10.32;;;9.90;99.90;;;;;;4991778;28;20057;-82
2024/02/17 05:42:35;;;;;;;14.38;9.20;;;9.80;99.90;;;;;;5011065;28;20046;-82
2024/02/17 05:45:03;;;;;;;17.20;10.07;;;9.80;99.90;;;;;;5027677;28;20135;-82
2024/02/17 05:47:30;;;;;;;20.75;11.48;;;9.80;99.90;;;;;;5016049;28;20077;-82
2024/02/17 05:49:59;;;;;;;22.02;11.18;;;9.80;99.90;;;;;;5046792;28;20052;-83
2024/02/17 05:52:26;;;;;;;15.05;9.10;;;9.80;99.90;;;;;;5028001;28;20084;-83
2024/02/17 05:54:53;;;;;;;14.30;8.93;;;9.80;99.90;;;;;;5051923;28;20383;-82
2024/02/17 05:57:21;;;;;;;13.18;8.07;;;9.80;99.90;;;;;;5020520;28;20072;-82
2024/02/17 05:59:48;;;;;;;15.32;7.75;;;9.90;99.90;;;;;;5021675;28;20100;-81
2024/02/17 06:02:15;;;;;;;18.40;10.10;;;9.90;99.90;;;;;;4995903;28;20538;-81
2024/02/17 06:04:43;;;;;;;13.07;7.82;;;9.90;99.90;;;;;;4968828;28;20053;-83
2024/02/17 06:07:10;;;;;;;12.57;7.57;;;9.90;99.90;;;;;;5009858;28;20060;-83
2024/02/17 06:09:38;;;;;;;11.73;6.85;;;9.90;99.90;;;;;;4995957;28;20049;-83
2024/02/17 06:12:05;;;;;;;11.02;5.90;;;9.90;99.90;;;;;;5025069;28;20076;-83
2024/02/17 06:14:32;;;;;;;10.57;6.43;;;9.90;99.90;;;;;;4969292;28;20041;-83
2024/02/17 06:17:05;;;;;;;11.25;6.35;;;9.90;99.90;;;;;;4987574;28;20037;-82
2024/02/17 06:22:21;;;;;;;11.00;6.40;;;9.90;99.90;;;;;;5029160;28;20083;-82
2024/02/17 06:24:48;;;;;;;11.93;6.32;;;9.80;99.90;;;;;;5034105;28;20073;-82
2024/02/17 06:27:15;;;;;;;14.07;7.40;;;9.90;99.90;;;;;;5009834;28;20101;-82
2024/02/17 06:29:44;;;;;;;13.90;6.95;;;9.80;99.90;;;;;;4995934;28;20054;-82
2024/02/17 06:32:11;;;;;;;9.13;5.55;;;9.80;99.90;;;;;;5012187;28;20053;-82
2024/02/17 06:34:38;;;;;;;11.10;6.05;;;9.80;99.90;;;;;;5008873;28;20123;-82
2024/02/17 06:37:05;;;;;;;13.07;7.75;;;9.80;99.90;;;;;;5017041;28;20129;-82
2024/02/17 06:39:34;;;;;;;14.80;8.75;;;9.70;99.90;;;;;;5007972;28;20072;-82
2024/02/17 06:42:01;;;;;;;16.00;9.43;;;9.80;99.90;;;;;;5044971;28;20056;-82
2024/02/17 06:44:28;;;;;;;18.95;8.82;;;9.70;99.90;;;;;;5062205;28;20145;-82
2024/02/17 06:46:55;;;;;;;15.90;9.15;;;9.70;99.90;;;;;;5016649;28;20054;-82
2024/02/17 06:49:22;;;;;;;17.48;8.95;;;9.80;99.90;;;;;;5006684;28;20552;-82
2024/02/17 06:51:49;;;;;;;15.40;8.82;;;9.70;99.90;;;;;;5018724;28;20041;-82
2024/02/17 06:54:17;;;;;;;15.10;8.70;;;9.70;99.90;;;;;;5015439;28;20041;-82
2024/02/17 06:56:44;;;;;;;18.70;10.77;;;9.70;99.90;;;;;;5031896;28;20037;-83
2024/02/17 06:59:11;;;;;;;13.05;7.38;;;9.80;99.90;;;;;;5001496;28;20080;-83
2024/02/17 07:01:38;;;;;;;14.45;8.43;;;9.70;99.90;;;;;;5036035;28;20132;-83
2024/02/17 07:04:09;;;;;;;10.13;6.28;;;9.80;99.90;;;;;;4972362;28;20057;-83
2024/02/17 07:06:36;;;;;;;10.98;6.85;;;9.70;99.90;;;;;;5024503;28;20141;-82
2024/02/17 07:09:03;;;;;;;11.07;6.45;;;9.70;99.90;;;;;;5033450;28;20048;-82
2024/02/17 07:11:32;;;;;;;10.85;5.97;;;9.70;99.90;;;;;;5034656;28;20386;-82
2024/02/17 07:13:59;;;;;;;9.93;5.18;;;9.70;99.90;;;;;;5000182;28;20486;-82
2024/02/17 07:16:26;;;;;;;9.20;4.78;;;9.70;99.90;;;;;;4994967;28;20450;-81
2024/02/17 07:18:57;;;;;;;6.20;4.13;;;9.70;99.90;;;;;;5003641;28;20406;-82
2024/02/17 07:21:27;;;;;;;6.80;4.47;;;9.70;99.90;;;;;;4998462;28;20049;-82
2024/02/17 07:23:55;;;;;;;7.75;4.75;;;9.70;99.90;;;;;;5008138;28;20081;-82
2024/02/17 07:26:22;;;;;;;7.47;4.40;;;9.70;99.90;;;;;;5016582;28;20449;-82
2024/02/17 07:28:49;;;;;;;6.78;3.63;;;9.70;99.90;;;;;;4998648;28;20045;-82
2024/02/17 07:31:17;;;;;;;6.55;3.78;;;9.70;99.90;;;;;;5018158;28;20056;-82
2024/02/17 07:33:46;;;;;;;10.45;5.28;;;9.70;99.90;;;;;;5016003;28;20176;-82
2024/02/17 07:36:13;;;;;;;8.75;5.47;;;9.70;99.90;;;;;;5014503;28;20042;-82
2024/02/17 07:38:40;;;;;;;10.07;6.03;;;9.70;99.90;;;;;;4988286;28;20049;-82
2024/02/17 07:41:08;;;;;;;10.48;5.80;;;9.70;99.90;;;;;;5043579;28;20041;-82
2024/02/17 07:43:34;;;;;;;10.15;6.50;;;9.70;99.90;;;;;;5001460;28;20046;-82
2024/02/17 07:46:02;;;;;;;9.10;5.88;;;9.70;99.90;;;;;;5013688;28;20041;-82
2024/02/17 07:48:29;;;;;;;12.95;6.38;;;9.70;99.90;;;;;;5027766;28;20485;-81
2024/02/17 07:50:56;;;;;;;11.65;6.60;;;9.80;99.90;;;;;;5021112;28;20143;-82
2024/02/17 07:53:27;;;;;;;13.10;7.30;;;9.80;99.90;;;;;;5044941;28;20045;-82
2024/02/17 07:55:54;;;;;;;17.05;8.43;;;9.80;99.90;;;;;;5012130;28;20045;-81
2024/02/17 07:58:23;;;;;;;13.80;8.05;;;9.90;99.90;;;;;;4988904;28;20049;-81
2024/02/17 08:00:53;;;;;;;17.90;10.00;;;9.90;99.90;;;;;;5013617;28;20050;-82
2024/02/17 08:03:20;;;;;;;14.73;8.02;;;10.00;99.90;;;;;;5005328;28;20054;-82
2024/02/17 08:05:48;;;;;;;12.63;7.45;;;10.00;99.90;;;;;;5030871;28;20099;-82
2024/02/17 08:08:15;;;;;;;14.07;7.30;;;10.10;99.90;;;;;;5040352;28;20050;-82
2024/02/17 08:10:42;;;;;;;11.45;7.10;;;10.10;99.90;;;;;;5017242;28;20052;-82
2024/02/17 08:13:09;;;;;;;12.00;6.65;;;10.10;99.90;;;;;;5013645;28;20048;-82
2024/02/17 08:15:36;;;;;;;14.75;8.45;;;10.20;99.90;;;;;;5016956;28;20049;-82
2024/02/17 08:18:04;;;;;;;16.45;9.30;;;10.20;99.90;;;;;;5016846;28;20045;-82
2024/02/17 08:20:32;;;;;;;16.73;9.27;;;10.30;99.90;;;;;;5035798;28;20037;-82
2024/02/17 08:22:59;;;;;;;19.90;11.40;;;10.40;99.90;;;;;;5023506;28;20049;-82
2024/02/17 08:25:26;;;;;;;16.13;9.75;;;10.40;99.90;;;;;;5045180;28;20095;-82
2024/02/17 08:27:55;;;;;;;16.83;10.38;;;10.40;99.90;;;;;;5040311;28;20103;-82
2024/02/17 08:30:23;;;;;;;16.30;9.80;;;10.50;99.90;;;;;;5024429;28;20075;-82
2024/02/17 08:32:53;;;;;;;16.40;9.32;;;10.50;99.90;;;;;;5037487;28;20045;-82
2024/02/17 08:35:20;;;;;;;12.90;8.40;;;10.50;99.90;;;;;;5002485;28;20481;-82
2024/02/17 08:37:48;;;;;;;17.20;9.20;;;10.50;99.90;;;;;;5005663;28;20068;-82
2024/02/17 08:40:15;;;;;;;14.95;8.27;;;10.60;99.90;;;;;;5014196;28;20451;-82
2024/02/17 08:42:42;;;;;;;13.85;8.40;;;10.60;99.90;;;;;;5032973;28;20092;-82
2024/02/17 08:45:09;;;;;;;13.98;9.13;;;10.70;99.90;;;;;;5001744;28;20076;-82
2024/02/17 08:47:36;;;;;;;17.83;10.02;;;10.70;99.90;;;;;;5001132;28;20124;-82
2024/02/17 08:50:04;;;;;;;14.45;8.70;;;10.70;99.90;;;;;;5001061;28;20452;-81
2024/02/17 08:52:33;;;;;;;15.23;8.88;;;10.80;99.90;;;;;;5045894;28;20046;-82
2024/02/17 08:55:00;;;;;;;15.65;8.55;;;10.80;99.90;;;;;;5016239;28;20034;-82
2024/02/17 08:57:27;;;;;;;14.65;8.13;;;10.90;99.90;;;;;;5022447;28;20473;-79
2024/02/17 08:59:54;;;;;;;19.63;9.60;;;10.90;99.90;;;;;;5021535;28;20049;-81
2024/02/17 09:02:21;;;;;;;21.85;10.57;;;10.90;99.90;;;;;;4997382;28;20041;-82
2024/02/17 09:04:48;;;;;;;19.17;9.90;;;10.90;99.90;;;;;;5022979;28;20048;-80
2024/02/17 09:07:16;;;;;;;16.85;9.10;;;10.90;99.90;;;;;;5034725;28;20132;-82
2024/02/17 09:09:43;;;;;;;17.70;9.95;;;10.90;99.90;;;;;;5001333;28;20044;-83
2024/02/17 09:12:10;;;;;;;19.60;11.48;;;11.00;99.90;;;;;;5017670;28;20141;-83
2024/02/17 09:14:37;;;;;;;17.98;10.98;;;11.00;99.90;;;;;;5011950;28;20050;-82
2024/02/17 09:17:05;;;;;;;20.02;9.75;;;11.10;99.90;;;;;;5037306;28;20405;-82
2024/02/17 09:19:32;;;;;;;17.67;8.10;;;11.10;99.90;;;;;;5002594;28;20056;-78
2024/02/17 09:21:59;;;;;;;15.35;7.50;;;11.20;99.90;;;;;;5005158;28;20042;-80
2024/02/17 09:24:27;;;;;;;18.58;9.55;;;11.20;99.90;;;;;;5002203;28;20049;-79
2024/02/17 09:26:55;;;;;;;14.02;8.00;;;11.30;99.90;;;;;;5027957;28;20148;-80
2024/02/17 09:29:30;;;;;;;13.77;7.07;;;11.30;99.90;;;;;;5017069;28;20052;-82
2024/02/17 09:32:13;;;;;;;16.25;8.40;;;11.30;99.90;;;;;;5019050;28;20067;-82
2024/02/17 09:34:40;;;;;;;16.35;8.40;;;11.30;99.90;;;;;;5016391;28;20383;-82
2024/02/17 09:37:09;;;;;;;18.30;9.85;;;11.40;99.90;;;;;;5032853;28;20052;-79
2024/02/17 09:39:39;;;;;;;15.02;8.60;;;11.40;99.90;;;;;;5032456;28;20053;-80
2024/02/17 09:42:07;;;;;;;16.67;9.25;;;11.40;99.90;;;;;;5026376;28;20061;-80
2024/02/17 09:44:34;;;;;;;18.52;9.52;;;11.50;99.90;;;;;;5003295;28;20045;-81
2024/02/17 09:47:03;;;;;;;19.92;10.30;;;11.50;99.90;;;;;;4993220;28;20128;-80
2024/02/17 09:49:35;;;;;;;16.48;10.05;;;11.50;99.90;;;;;;5028736;28;20049;-79
2024/02/17 09:52:03;;;;;;;19.50;10.20;;;11.60;99.90;;;;;;5032995;28;20164;-79
2024/02/17 09:54:30;;;;;;;21.10;12.35;;;11.60;99.90;;;;;;5011071;28;20379;-79
2024/02/17 09:56:59;;;;;;;19.58;12.23;;;11.60;99.90;;;;;;4993420;28;20498;-78
2024/02/17 09:59:27;;;;;;;21.40;12.50;;;11.60;99.90;;;;;;5040562;28;20536;-80
2024/02/17 10:01:54;;;;;;;21.42;11.75;;;11.60;99.90;;;;;;5002087;28;20053;-80
2024/02/17 10:04:21;;;;;;;21.50;11.75;;;11.60;99.90;;;;;;5028954;28;20046;-80
2024/02/17 10:07:01;;;;;;;21.98;12.23;;;11.70;99.90;;;;;;5030963;28;20047;-80
2024/02/17 10:09:28;;;;;;;21.92;12.57;;;11.70;99.90;;;;;;5026206;28;20055;-86
2024/02/17 10:11:58;;;;;;;23.38;13.10;;;11.70;99.90;;;;;;5006146;28;20057;-85
2024/02/17 10:14:29;;;;;;;21.00;13.00;;;11.70;99.90;;;;;;5016135;28;20107;-85
2024/02/17 10:17:00;;;;;;;18.73;10.50;;;11.80;99.90;;;;;;5019925;28;20051;-87
2024/02/17 10:19:29;;;;;;;16.63;9.70;;;11.80;99.90;;;;;;4998586;28;20042;-83
2024/02/17 10:21:56;;;;;;;19.50;10.43;;;11.80;99.90;;;;;;5012214;28;20092;-84
2024/02/17 10:24:23;;;;;;;16.10;11.55;;;11.90;99.90;;;;;;5002162;28;20148;-86
2024/02/17 10:26:52;;;;;;;20.05;13.13;;;11.90;99.90;;;;;;5011231;28;20046;-85
2024/02/17 10:29:19;;;;;;;25.95;14.05;;;11.90;99.90;;;;;;4995639;28;20046;-85
2024/02/17 10:31:48;;;;;;;19.67;12.35;;;11.90;99.90;;;;;;5016028;28;20502;-86
2024/02/17 10:34:16;;;;;;;19.58;13.52;;;12.00;99.90;;;;;;5022999;28;20049;-87
2024/02/17 10:36:43;;;;;;;22.02;14.25;;;12.00;99.90;;;;;;5018706;28;20156;-84
2024/02/17 10:39:11;;;;;;;18.38;11.65;;;12.10;99.90;;;;;;5042609;28;20398;-84
2024/02/17 10:41:38;;;;;;;18.13;11.13;;;12.10;99.90;;;;;;5028045;28;20058;-84
2024/02/17 10:44:06;;;;;;;23.40;11.93;;;12.10;99.90;;;;;;5012867;28;20044;-84
2024/02/17 10:46:35;;;;;;;17.17;10.73;;;12.20;99.90;;;;;;5009594;28;20057;-80
2024/02/17 10:49:18;;;;;;;19.27;12.05;;;12.20;99.90;;;;;;5018996;28;20132;-80
2024/02/17 10:52:08;;;;;;;17.92;11.27;;;12.20;99.90;;;;;;5046122;28;20076;-87
2024/02/17 10:54:50;;;;;;;16.75;11.32;;;12.20;99.90;;;;;;5061749;28;20045;-86
2024/02/17 10:57:21;;;;;;;20.95;10.80;;;12.30;99.90;;;;;;5054978;28;20053;-84
2024/02/17 10:59:54;;;;;;;17.35;9.15;;;12.30;99.90;;;;;;5040066;28;20045;-84
2024/02/17 11:02:26;;;;;;;21.67;11.63;;;12.40;99.90;;;;;;5036978;28;20034;-85
2024/02/17 11:04:54;;;;;;;19.95;11.85;;;12.40;99.90;;;;;;5045750;28;20045;-85
2024/02/17 11:07:22;;;;;;;19.63;11.95;;;12.40;99.90;;;;;;5028854;28;20053;-85
2024/02/17 11:09:50;;;;;;;15.50;10.32;;;12.40;99.90;;;;;;5048191;28;20037;-84
2024/02/17 11:12:29;;;;;;;17.58;10.90;;;12.50;99.90;;;;;;5021409;28;20052;-84
2024/02/17 11:15:00;;;;;;;19.30;10.27;;;12.50;99.90;;;;;;5018945;28;20045;-85
2024/02/17 11:17:36;;;;;;;18.30;10.05;;;12.50;99.90;;;;;;5003288;28;20095;-86
2024/02/17 11:20:06;;;;;;;17.45;10.55;;;12.50;99.90;;;;;;5031286;28;20049;-81
2024/02/17 11:22:35;;;;;;;17.83;9.30;;;12.50;99.90;;;;;;5030625;28;20088;-81
2024/02/17 11:25:04;;;;;;;16.70;10.43;;;12.50;99.90;;;;;;5035149;28;20037;-83
2024/02/17 11:27:34;;;;;;;18.38;10.55;;;12.50;99.90;;;;;;5023067;28;20487;-87
2024/02/17 11:30:05;;;;;;;16.58;10.65;;;12.50;99.90;;;;;;5018824;28;20056;-87
2024/02/17 11:32:32;;;;;;;17.42;10.90;;;12.50;99.90;;;;;;5044524;28;20161;-84
2024/02/17 11:35:02;;;;;;;14.90;9.23;;;12.50;99.90;;;;;;5023524;28;20414;-84
2024/02/17 11:37:34;;;;;;;13.50;8.80;;;12.50;99.90;;;;;;5026712;28;20072;-86
2024/02/17 11:40:02;;;;;;;;;;;12.50;99.90;;;;;;5031236;28;20049;-85
2024/02/17 11:42:30;;;;;;;11.80;7.10;;;12.50;99.90;;;;;;5030068;28;19928;-86
2024/02/17 11:44:58;;;;;;;12.93;8.02;;;12.60;99.90;;;;;;5003944;28;20041;-84
2024/02/17 11:47:29;;;;;;;14.23;7.90;;;12.70;99.90;;;;;;5021612;28;20140;-88
2024/02/17 11:50:10;;;;;;;12.27;8.18;;;12.70;99.90;;;;;;5019695;28;20046;-85
2024/02/17 11:52:41;;;;;;;14.70;9.13;;;12.70;99.90;;;;;;5048238;28;20049;-87
2024/02/17 11:55:11;;;;;;;16.80;10.00;;;12.80;99.90;;;;;;5042129;28;20487;-85
2024/02/17 11:57:41;;;;;;;18.25;10.02;;;12.70;99.90;;;;;;4999414;28;20117;-83
2024/02/17 12:00:11;;;;;;;12.60;8.38;;;12.80;99.90;;;;;;5029181;28;20042;-86
2024/02/17 12:02:45;;;;;;;17.33;9.85;;;12.70;99.90;;;;;;5017397;28;20046;-85
2024/02/17 12:05:17;;;;;;;16.70;9.27;;;12.70;99.90;;;;;;5015125;28;20108;-85
2024/02/17 12:07:44;;;;;;;16.15;9.18;;;12.70;99.90;;;;;;5014717;28;20100;-85
2024/02/17 12:10:14;;;;;;;14.68;9.73;;;12.60;99.90;;;;;;5000089;28;20077;-85
2024/02/17 12:12:41;;;;;;;16.60;10.73;;;12.60;99.90;;;;;;5011521;28;20068;-86
2024/02/17 12:15:12;;;;;;;16.45;10.18;;;12.60;99.90;;;;;;5017742;28;20073;-85
2024/02/17 12:17:43;;;;;;;18.48;10.77;;;12.50;99.90;;;;;;5027860;28;20080;-84
2024/02/17 12:20:16;;;;;;;15.05;10.63;;;12.60;99.90;;;;;;5032610;28;20202;-85
2024/02/17 12:22:50;;;;;;;16.58;9.75;;;12.50;99.90;;;;;;5032627;28;20037;-76
2024/02/17 12:25:19;;;;;;;16.48;10.15;;;12.60;99.90;;;;;;5032899;28;20084;-78
2024/02/17 12:27:48;;;;;;;15.23;8.70;;;12.60;99.90;;;;;;5013575;28;20058;-77
2024/02/17 12:30:17;;;;;;;13.52;9.00;;;12.60;99.90;;;;;;5032193;28;20037;-77
2024/02/17 12:32:45;;;;;;;16.98;9.75;;;12.60;99.90;;;;;;5001846;28;20049;-77
2024/02/17 12:35:14;;;;;;;16.73;9.35;;;12.70;99.90;;;;;;5013578;28;20041;-77
2024/02/17 12:37:47;;;;;;;22.38;9.80;;;12.70;99.90;;;;;;5007845;28;20520;-75
2024/02/17 12:40:18;;;;;;;14.05;8.73;;;12.70;99.90;;;;;;5023372;28;20037;-79
2024/02/17 12:42:51;;;;;;;15.35;9.40;;;12.70;99.90;;;;;;5014573;28;20045;-77
2024/02/17 12:45:32;;;;;;;15.23;9.77;;;12.80;99.90;;;;;;5041378;28;20132;-79